sensor_id;sensor_type;location;lat;lon;timestamp;P1;durP1;ratioP1;P2;durP2;ratioP2
18228;SDS011;9239;50.932;3.142;2022-12-18T00:02:19;53.27;;;29.17;;
18228;SDS011;9239;50.932;3.142;2022-12-18T00:04:47;52.73;;;30.23;;
18228;SDS011;9239;50.932;3.142;2022-12-18T00:07:14;50.17;;;28.53;;
18228;SDS011;9239;50.932;3.142;2022-12-18T00:09:42;55.97;;;35.30;;
18228;SDS011;9239;50.932;3.142;2022-12-18T00:12:09;55.50;;;37.40;;
18228;SDS011;9239;50.932;3.142;2022-12-18T00:14:36;63.90;;;38.70;;
18228;SDS011;9239;50.932;3.142;2022-12-18T00:17:02;67.77;;;39.63;;
18228;SDS011;9239;50.932;3.142;2022-12-18T00:19:29;61.73;;;39.37;;
18228;SDS011;9239;50.932;3.142;2022-12-18T00:21:56;56.87;;;32.23;;
18228;SDS011;9239;50.932;3.142;2022-12-18T00:24:23;63.23;;;36.23;;
18228;SDS011;9239;50.932;3.142;2022-12-18T00:26:51;57.33;;;35.87;;
18228;SDS011;9239;50.932;3.142;2022-12-18T00:29:18;62.30;;;36.10;;
18228;SDS011;9239;50.932;3.142;2022-12-18T00:31:45;59.43;;;32.00;;
18228;SDS011;9239;50.932;3.142;2022-12-18T00:34:12;63.20;;;33.40;;
18228;SDS011;9239;50.932;3.142;2022-12-18T00:36:39;58.20;;;32.50;;
18228;SDS011;9239;50.932;3.142;2022-12-18T00:39:07;57.87;;;32.17;;
18228;SDS011;9239;50.932;3.142;2022-12-18T00:41:34;66.77;;;34.73;;
18228;SDS011;9239;50.932;3.142;2022-12-18T00:44:20;61.70;;;30.83;;
18228;SDS011;9239;50.932;3.142;2022-12-18T00:46:47;60.53;;;33.73;;
18228;SDS011;9239;50.932;3.142;2022-12-18T00:49:14;57.97;;;31.50;;
18228;SDS011;9239;50.932;3.142;2022-12-18T00:51:43;57.00;;;31.57;;
18228;SDS011;9239;50.932;3.142;2022-12-18T00:54:10;57.80;;;31.20;;
18228;SDS011;9239;50.932;3.142;2022-12-18T00:56:37;54.90;;;30.63;;
18228;SDS011;9239;50.932;3.142;2022-12-18T00:59:04;54.87;;;30.77;;
18228;SDS011;9239;50.932;3.142;2022-12-18T01:01:33;65.83;;;34.73;;
18228;SDS011;9239;50.932;3.142;2022-12-18T01:04:00;59.00;;;34.13;;
18228;SDS011;9239;50.932;3.142;2022-12-18T01:06:28;60.07;;;31.77;;
18228;SDS011;9239;50.932;3.142;2022-12-18T01:08:56;53.43;;;31.30;;
18228;SDS011;9239;50.932;3.142;2022-12-18T01:11:23;58.13;;;33.40;;
18228;SDS011;9239;50.932;3.142;2022-12-18T01:13:51;56.53;;;30.50;;
18228;SDS011;9239;50.932;3.142;2022-12-18T01:16:19;60.63;;;32.23;;
18228;SDS011;9239;50.932;3.142;2022-12-18T01:18:50;56.63;;;31.93;;
18228;SDS011;9239;50.932;3.142;2022-12-18T01:21:18;60.00;;;32.83;;
18228;SDS011;9239;50.932;3.142;2022-12-18T01:23:45;55.20;;;33.33;;
18228;SDS011;9239;50.932;3.142;2022-12-18T01:26:13;60.73;;;34.87;;
18228;SDS011;9239;50.932;3.142;2022-12-18T01:28:41;51.23;;;30.53;;
18228;SDS011;9239;50.932;3.142;2022-12-18T01:31:10;51.90;;;29.80;;
18228;SDS011;9239;50.932;3.142;2022-12-18T01:33:41;58.80;;;30.33;;
18228;SDS011;9239;50.932;3.142;2022-12-18T01:36:13;53.63;;;30.57;;
18228;SDS011;9239;50.932;3.142;2022-12-18T01:38:41;59.17;;;31.33;;
18228;SDS011;9239;50.932;3.142;2022-12-18T01:41:08;53.57;;;30.63;;
18228;SDS011;9239;50.932;3.142;2022-12-18T01:43:45;59.30;;;30.93;;
18228;SDS011;9239;50.932;3.142;2022-12-18T01:46:15;62.33;;;30.57;;
18228;SDS011;9239;50.932;3.142;2022-12-18T01:48:43;56.47;;;31.47;;
18228;SDS011;9239;50.932;3.142;2022-12-18T01:51:14;54.67;;;31.00;;
18228;SDS011;9239;50.932;3.142;2022-12-18T01:53:42;52.00;;;31.37;;
18228;SDS011;9239;50.932;3.142;2022-12-18T01:56:12;55.70;;;30.40;;
18228;SDS011;9239;50.932;3.142;2022-12-18T01:58:42;53.67;;;31.13;;
18228;SDS011;9239;50.932;3.142;2022-12-18T02:01:14;52.97;;;30.60;;
18228;SDS011;9239;50.932;3.142;2022-12-18T02:03:42;51.07;;;31.87;;
18228;SDS011;9239;50.932;3.142;2022-12-18T02:06:11;59.60;;;32.47;;
18228;SDS011;9239;50.932;3.142;2022-12-18T02:08:48;50.03;;;29.33;;
18228;SDS011;9239;50.932;3.142;2022-12-18T02:11:25;52.13;;;29.97;;
18228;SDS011;9239;50.932;3.142;2022-12-18T02:14:08;54.77;;;29.00;;
18228;SDS011;9239;50.932;3.142;2022-12-18T02:16:44;55.40;;;29.90;;
18228;SDS011;9239;50.932;3.142;2022-12-18T02:19:20;50.33;;;28.33;;
18228;SDS011;9239;50.932;3.142;2022-12-18T02:22:05;53.17;;;30.50;;
18228;SDS011;9239;50.932;3.142;2022-12-18T02:24:42;47.90;;;29.07;;
18228;SDS011;9239;50.932;3.142;2022-12-18T02:27:19;52.67;;;28.57;;
18228;SDS011;9239;50.932;3.142;2022-12-18T02:29:48;52.80;;;29.63;;
18228;SDS011;9239;50.932;3.142;2022-12-18T02:32:18;51.57;;;28.70;;
18228;SDS011;9239;50.932;3.142;2022-12-18T02:34:49;52.60;;;31.67;;
18228;SDS011;9239;50.932;3.142;2022-12-18T02:37:18;53.40;;;28.33;;
18228;SDS011;9239;50.932;3.142;2022-12-18T02:39:47;46.00;;;29.63;;
18228;SDS011;9239;50.932;3.142;2022-12-18T02:42:15;46.23;;;28.27;;
18228;SDS011;9239;50.932;3.142;2022-12-18T02:44:45;49.90;;;29.70;;
18228;SDS011;9239;50.932;3.142;2022-12-18T02:47:15;43.80;;;27.63;;
18228;SDS011;9239;50.932;3.142;2022-12-18T02:49:46;47.97;;;28.73;;
18228;SDS011;9239;50.932;3.142;2022-12-18T02:52:21;45.37;;;27.27;;
18228;SDS011;9239;50.932;3.142;2022-12-18T02:54:56;45.87;;;27.47;;
18228;SDS011;9239;50.932;3.142;2022-12-18T02:57:34;42.40;;;26.10;;
18228;SDS011;9239;50.932;3.142;2022-12-18T03:00:09;40.47;;;27.23;;
18228;SDS011;9239;50.932;3.142;2022-12-18T03:02:39;43.03;;;28.13;;
18228;SDS011;9239;50.932;3.142;2022-12-18T03:05:13;42.97;;;26.40;;
18228;SDS011;9239;50.932;3.142;2022-12-18T03:07:45;40.33;;;27.13;;
18228;SDS011;9239;50.932;3.142;2022-12-18T03:10:17;44.40;;;28.57;;
18228;SDS011;9239;50.932;3.142;2022-12-18T03:12:50;42.47;;;28.27;;
18228;SDS011;9239;50.932;3.142;2022-12-18T03:15:22;40.97;;;27.20;;
18228;SDS011;9239;50.932;3.142;2022-12-18T03:17:55;41.57;;;25.53;;
18228;SDS011;9239;50.932;3.142;2022-12-18T03:20:25;41.77;;;26.40;;
18228;SDS011;9239;50.932;3.142;2022-12-18T03:22:55;39.53;;;26.20;;
18228;SDS011;9239;50.932;3.142;2022-12-18T03:25:28;38.50;;;25.83;;
18228;SDS011;9239;50.932;3.142;2022-12-18T03:27:58;40.30;;;24.50;;
18228;SDS011;9239;50.932;3.142;2022-12-18T03:30:29;35.33;;;24.63;;
18228;SDS011;9239;50.932;3.142;2022-12-18T03:33:00;37.50;;;23.77;;
18228;SDS011;9239;50.932;3.142;2022-12-18T03:35:31;36.03;;;24.60;;
18228;SDS011;9239;50.932;3.142;2022-12-18T03:38:01;35.17;;;24.50;;
18228;SDS011;9239;50.932;3.142;2022-12-18T03:40:29;38.73;;;24.17;;
18228;SDS011;9239;50.932;3.142;2022-12-18T03:43:02;39.27;;;23.67;;
18228;SDS011;9239;50.932;3.142;2022-12-18T03:45:37;42.57;;;25.87;;
18228;SDS011;9239;50.932;3.142;2022-12-18T03:48:08;35.77;;;24.33;;
18228;SDS011;9239;50.932;3.142;2022-12-18T03:50:43;34.70;;;24.30;;
18228;SDS011;9239;50.932;3.142;2022-12-18T03:53:17;35.53;;;23.67;;
18228;SDS011;9239;50.932;3.142;2022-12-18T03:55:50;37.97;;;25.13;;
18228;SDS011;9239;50.932;3.142;2022-12-18T03:58:19;36.03;;;23.77;;
18228;SDS011;9239;50.932;3.142;2022-12-18T04:00:50;38.23;;;24.47;;
18228;SDS011;9239;50.932;3.142;2022-12-18T04:03:20;37.73;;;23.60;;
18228;SDS011;9239;50.932;3.142;2022-12-18T04:05:49;43.53;;;25.37;;
18228;SDS011;9239;50.932;3.142;2022-12-18T04:08:18;32.07;;;22.80;;
18228;SDS011;9239;50.932;3.142;2022-12-18T04:10:46;36.03;;;24.10;;
18228;SDS011;9239;50.932;3.142;2022-12-18T04:13:21;34.77;;;22.60;;
18228;SDS011;9239;50.932;3.142;2022-12-18T04:15:48;33.10;;;22.93;;
18228;SDS011;9239;50.932;3.142;2022-12-18T04:18:16;30.13;;;21.60;;
18228;SDS011;9239;50.932;3.142;2022-12-18T04:20:43;36.17;;;24.77;;
18228;SDS011;9239;50.932;3.142;2022-12-18T04:23:10;32.83;;;22.27;;
18228;SDS011;9239;50.932;3.142;2022-12-18T04:25:37;42.83;;;24.30;;
18228;SDS011;9239;50.932;3.142;2022-12-18T04:28:04;35.07;;;22.23;;
18228;SDS011;9239;50.932;3.142;2022-12-18T04:30:31;33.83;;;23.10;;
18228;SDS011;9239;50.932;3.142;2022-12-18T04:32:58;36.90;;;23.13;;
18228;SDS011;9239;50.932;3.142;2022-12-18T04:35:26;31.63;;;23.00;;
18228;SDS011;9239;50.932;3.142;2022-12-18T04:37:53;37.90;;;23.40;;
18228;SDS011;9239;50.932;3.142;2022-12-18T04:40:20;35.40;;;23.30;;
18228;SDS011;9239;50.932;3.142;2022-12-18T04:42:47;28.40;;;21.13;;
18228;SDS011;9239;50.932;3.142;2022-12-18T04:45:14;36.80;;;23.50;;
18228;SDS011;9239;50.932;3.142;2022-12-18T04:47:40;34.80;;;23.47;;
18228;SDS011;9239;50.932;3.142;2022-12-18T04:50:07;37.20;;;22.20;;
18228;SDS011;9239;50.932;3.142;2022-12-18T04:52:36;32.10;;;22.37;;
18228;SDS011;9239;50.932;3.142;2022-12-18T04:55:03;34.43;;;23.40;;
18228;SDS011;9239;50.932;3.142;2022-12-18T04:57:30;34.63;;;22.67;;
18228;SDS011;9239;50.932;3.142;2022-12-18T04:59:57;34.53;;;21.73;;
18228;SDS011;9239;50.932;3.142;2022-12-18T05:02:24;34.27;;;22.37;;
18228;SDS011;9239;50.932;3.142;2022-12-18T05:04:51;34.10;;;23.27;;
18228;SDS011;9239;50.932;3.142;2022-12-18T05:07:18;30.83;;;20.73;;
18228;SDS011;9239;50.932;3.142;2022-12-18T05:09:46;30.23;;;21.33;;
18228;SDS011;9239;50.932;3.142;2022-12-18T05:12:13;35.27;;;23.67;;
18228;SDS011;9239;50.932;3.142;2022-12-18T05:14:40;35.50;;;21.50;;
18228;SDS011;9239;50.932;3.142;2022-12-18T05:17:07;36.90;;;23.33;;
18228;SDS011;9239;50.932;3.142;2022-12-18T05:19:34;35.53;;;22.23;;
18228;SDS011;9239;50.932;3.142;2022-12-18T05:22:01;31.83;;;21.40;;
18228;SDS011;9239;50.932;3.142;2022-12-18T05:24:28;32.57;;;20.70;;
18228;SDS011;9239;50.932;3.142;2022-12-18T05:26:56;32.93;;;20.90;;
18228;SDS011;9239;50.932;3.142;2022-12-18T05:29:23;33.27;;;22.40;;
18228;SDS011;9239;50.932;3.142;2022-12-18T05:31:50;30.80;;;20.93;;
18228;SDS011;9239;50.932;3.142;2022-12-18T05:34:17;33.03;;;21.73;;
18228;SDS011;9239;50.932;3.142;2022-12-18T05:36:44;37.63;;;22.27;;
18228;SDS011;9239;50.932;3.142;2022-12-18T05:39:11;33.20;;;22.53;;
18228;SDS011;9239;50.932;3.142;2022-12-18T05:41:38;32.50;;;20.50;;
18228;SDS011;9239;50.932;3.142;2022-12-18T05:44:06;34.30;;;22.43;;
18228;SDS011;9239;50.932;3.142;2022-12-18T05:46:33;32.93;;;20.07;;
18228;SDS011;9239;50.932;3.142;2022-12-18T05:49:00;36.33;;;24.00;;
18228;SDS011;9239;50.932;3.142;2022-12-18T05:51:27;32.70;;;21.07;;
18228;SDS011;9239;50.932;3.142;2022-12-18T05:53:54;31.73;;;20.70;;
18228;SDS011;9239;50.932;3.142;2022-12-18T05:56:21;29.80;;;19.90;;
18228;SDS011;9239;50.932;3.142;2022-12-18T05:58:51;29.67;;;20.47;;
18228;SDS011;9239;50.932;3.142;2022-12-18T06:01:20;32.70;;;18.67;;
18228;SDS011;9239;50.932;3.142;2022-12-18T06:03:50;29.43;;;19.97;;
18228;SDS011;9239;50.932;3.142;2022-12-18T06:06:18;33.40;;;20.33;;
18228;SDS011;9239;50.932;3.142;2022-12-18T06:08:47;26.07;;;17.90;;
18228;SDS011;9239;50.932;3.142;2022-12-18T06:11:16;34.57;;;20.17;;
18228;SDS011;9239;50.932;3.142;2022-12-18T06:13:44;30.83;;;18.80;;
18228;SDS011;9239;50.932;3.142;2022-12-18T06:16:11;24.80;;;18.23;;
18228;SDS011;9239;50.932;3.142;2022-12-18T06:18:40;26.60;;;19.30;;
18228;SDS011;9239;50.932;3.142;2022-12-18T06:21:07;28.10;;;17.93;;
18228;SDS011;9239;50.932;3.142;2022-12-18T06:23:34;25.83;;;17.30;;
18228;SDS011;9239;50.932;3.142;2022-12-18T06:26:03;25.67;;;17.20;;
18228;SDS011;9239;50.932;3.142;2022-12-18T06:28:31;25.50;;;16.30;;
18228;SDS011;9239;50.932;3.142;2022-12-18T06:30:58;24.50;;;16.70;;
18228;SDS011;9239;50.932;3.142;2022-12-18T06:33:25;25.30;;;17.50;;
18228;SDS011;9239;50.932;3.142;2022-12-18T06:35:58;22.90;;;15.93;;
18228;SDS011;9239;50.932;3.142;2022-12-18T06:38:26;21.43;;;14.23;;
18228;SDS011;9239;50.932;3.142;2022-12-18T06:40:53;21.20;;;14.60;;
18228;SDS011;9239;50.932;3.142;2022-12-18T06:43:20;21.97;;;14.93;;
18228;SDS011;9239;50.932;3.142;2022-12-18T06:45:47;22.87;;;15.60;;
18228;SDS011;9239;50.932;3.142;2022-12-18T06:48:17;21.53;;;15.50;;
18228;SDS011;9239;50.932;3.142;2022-12-18T06:50:44;17.87;;;14.73;;
18228;SDS011;9239;50.932;3.142;2022-12-18T06:53:13;20.97;;;16.07;;
18228;SDS011;9239;50.932;3.142;2022-12-18T06:55:40;18.93;;;13.33;;
18228;SDS011;9239;50.932;3.142;2022-12-18T06:58:06;22.50;;;16.17;;
18228;SDS011;9239;50.932;3.142;2022-12-18T07:00:33;22.30;;;15.73;;
18228;SDS011;9239;50.932;3.142;2022-12-18T07:03:00;19.97;;;15.70;;
18228;SDS011;9239;50.932;3.142;2022-12-18T07:05:27;19.20;;;13.60;;
18228;SDS011;9239;50.932;3.142;2022-12-18T07:07:54;21.43;;;14.83;;
18228;SDS011;9239;50.932;3.142;2022-12-18T07:10:22;22.67;;;15.87;;
18228;SDS011;9239;50.932;3.142;2022-12-18T07:12:49;21.33;;;14.93;;
18228;SDS011;9239;50.932;3.142;2022-12-18T07:15:16;19.10;;;12.93;;
18228;SDS011;9239;50.932;3.142;2022-12-18T07:17:43;21.77;;;14.70;;
18228;SDS011;9239;50.932;3.142;2022-12-18T07:20:10;22.90;;;14.43;;
18228;SDS011;9239;50.932;3.142;2022-12-18T07:22:37;19.10;;;13.80;;
18228;SDS011;9239;50.932;3.142;2022-12-18T07:25:05;22.67;;;13.87;;
18228;SDS011;9239;50.932;3.142;2022-12-18T07:27:35;18.67;;;12.80;;
18228;SDS011;9239;50.932;3.142;2022-12-18T07:30:02;18.87;;;12.47;;
18228;SDS011;9239;50.932;3.142;2022-12-18T07:32:29;17.10;;;13.40;;
18228;SDS011;9239;50.932;3.142;2022-12-18T07:34:56;17.13;;;13.77;;
18228;SDS011;9239;50.932;3.142;2022-12-18T07:37:23;16.90;;;12.53;;
18228;SDS011;9239;50.932;3.142;2022-12-18T07:39:50;16.80;;;11.37;;
18228;SDS011;9239;50.932;3.142;2022-12-18T07:42:17;17.87;;;11.67;;
18228;SDS011;9239;50.932;3.142;2022-12-18T07:44:58;14.53;;;11.47;;
18228;SDS011;9239;50.932;3.142;2022-12-18T07:47:25;16.87;;;12.07;;
18228;SDS011;9239;50.932;3.142;2022-12-18T07:49:52;15.07;;;11.77;;
18228;SDS011;9239;50.932;3.142;2022-12-18T07:52:19;15.83;;;11.47;;
18228;SDS011;9239;50.932;3.142;2022-12-18T07:54:45;16.23;;;11.57;;
18228;SDS011;9239;50.932;3.142;2022-12-18T07:57:14;18.03;;;12.03;;
18228;SDS011;9239;50.932;3.142;2022-12-18T07:59:41;15.33;;;11.73;;
18228;SDS011;9239;50.932;3.142;2022-12-18T08:02:09;16.20;;;12.13;;
18228;SDS011;9239;50.932;3.142;2022-12-18T08:04:36;18.30;;;12.17;;
18228;SDS011;9239;50.932;3.142;2022-12-18T08:07:03;19.50;;;12.47;;
18228;SDS011;9239;50.932;3.142;2022-12-18T08:09:30;18.73;;;12.23;;
18228;SDS011;9239;50.932;3.142;2022-12-18T08:11:56;17.97;;;12.27;;
18228;SDS011;9239;50.932;3.142;2022-12-18T08:14:23;18.07;;;13.57;;
18228;SDS011;9239;50.932;3.142;2022-12-18T08:16:51;21.40;;;13.67;;
18228;SDS011;9239;50.932;3.142;2022-12-18T08:19:19;26.30;;;17.93;;
18228;SDS011;9239;50.932;3.142;2022-12-18T08:21:46;18.63;;;13.07;;
18228;SDS011;9239;50.932;3.142;2022-12-18T08:24:13;14.30;;;12.40;;
18228;SDS011;9239;50.932;3.142;2022-12-18T08:26:40;17.57;;;13.93;;
18228;SDS011;9239;50.932;3.142;2022-12-18T08:29:06;16.63;;;12.83;;
18228;SDS011;9239;50.932;3.142;2022-12-18T08:31:34;16.93;;;12.93;;
18228;SDS011;9239;50.932;3.142;2022-12-18T08:34:01;18.60;;;12.60;;
18228;SDS011;9239;50.932;3.142;2022-12-18T08:36:30;16.40;;;12.33;;
18228;SDS011;9239;50.932;3.142;2022-12-18T08:38:57;18.17;;;14.07;;
18228;SDS011;9239;50.932;3.142;2022-12-18T08:41:23;18.90;;;13.60;;
18228;SDS011;9239;50.932;3.142;2022-12-18T08:43:50;17.00;;;12.00;;
18228;SDS011;9239;50.932;3.142;2022-12-18T08:46:35;17.27;;;13.30;;
18228;SDS011;9239;50.932;3.142;2022-12-18T08:49:04;17.60;;;12.83;;
18228;SDS011;9239;50.932;3.142;2022-12-18T08:51:32;19.97;;;12.33;;
18228;SDS011;9239;50.932;3.142;2022-12-18T08:53:59;17.33;;;13.93;;
18228;SDS011;9239;50.932;3.142;2022-12-18T08:56:27;16.23;;;13.23;;
18228;SDS011;9239;50.932;3.142;2022-12-18T08:58:55;15.90;;;12.13;;
18228;SDS011;9239;50.932;3.142;2022-12-18T09:01:22;17.30;;;13.63;;
18228;SDS011;9239;50.932;3.142;2022-12-18T09:03:50;20.93;;;15.93;;
18228;SDS011;9239;50.932;3.142;2022-12-18T09:06:18;20.57;;;14.97;;
18228;SDS011;9239;50.932;3.142;2022-12-18T09:08:47;21.93;;;13.80;;
18228;SDS011;9239;50.932;3.142;2022-12-18T09:11:15;17.10;;;12.90;;
18228;SDS011;9239;50.932;3.142;2022-12-18T09:13:46;17.73;;;14.33;;
18228;SDS011;9239;50.932;3.142;2022-12-18T09:16:13;19.63;;;14.73;;
18228;SDS011;9239;50.932;3.142;2022-12-18T09:18:39;17.17;;;13.17;;
18228;SDS011;9239;50.932;3.142;2022-12-18T09:21:07;19.60;;;13.53;;
18228;SDS011;9239;50.932;3.142;2022-12-18T09:23:35;16.37;;;13.63;;
18228;SDS011;9239;50.932;3.142;2022-12-18T09:26:03;21.97;;;15.30;;
18228;SDS011;9239;50.932;3.142;2022-12-18T09:28:30;18.80;;;13.63;;
18228;SDS011;9239;50.932;3.142;2022-12-18T09:30:57;18.93;;;13.73;;
18228;SDS011;9239;50.932;3.142;2022-12-18T09:33:24;19.27;;;14.10;;
18228;SDS011;9239;50.932;3.142;2022-12-18T09:35:51;17.43;;;14.57;;
18228;SDS011;9239;50.932;3.142;2022-12-18T09:38:18;18.27;;;14.43;;
18228;SDS011;9239;50.932;3.142;2022-12-18T09:40:46;18.03;;;13.33;;
18228;SDS011;9239;50.932;3.142;2022-12-18T09:43:17;19.17;;;14.80;;
18228;SDS011;9239;50.932;3.142;2022-12-18T09:45:46;21.60;;;14.90;;
18228;SDS011;9239;50.932;3.142;2022-12-18T09:48:18;20.03;;;15.20;;
18228;SDS011;9239;50.932;3.142;2022-12-18T09:50:47;21.03;;;15.87;;
18228;SDS011;9239;50.932;3.142;2022-12-18T09:53:17;18.17;;;14.67;;
18228;SDS011;9239;50.932;3.142;2022-12-18T09:55:47;17.40;;;14.53;;
18228;SDS011;9239;50.932;3.142;2022-12-18T09:58:19;20.17;;;15.10;;
18228;SDS011;9239;50.932;3.142;2022-12-18T10:00:51;21.53;;;14.40;;
18228;SDS011;9239;50.932;3.142;2022-12-18T10:03:19;22.00;;;15.27;;
18228;SDS011;9239;50.932;3.142;2022-12-18T10:05:49;22.63;;;16.33;;
18228;SDS011;9239;50.932;3.142;2022-12-18T10:08:25;24.77;;;15.57;;
18228;SDS011;9239;50.932;3.142;2022-12-18T10:11:11;18.97;;;14.17;;
18228;SDS011;9239;50.932;3.142;2022-12-18T10:13:57;20.47;;;16.67;;
18228;SDS011;9239;50.932;3.142;2022-12-18T10:16:29;23.27;;;17.20;;
18228;SDS011;9239;50.932;3.142;2022-12-18T10:19:13;26.27;;;16.83;;
18228;SDS011;9239;50.932;3.142;2022-12-18T10:21:48;23.63;;;18.33;;
18228;SDS011;9239;50.932;3.142;2022-12-18T10:24:21;23.30;;;15.53;;
18228;SDS011;9239;50.932;3.142;2022-12-18T10:26:52;24.43;;;16.60;;
18228;SDS011;9239;50.932;3.142;2022-12-18T10:29:28;20.73;;;16.20;;
18228;SDS011;9239;50.932;3.142;2022-12-18T10:31:55;23.00;;;18.13;;
18228;SDS011;9239;50.932;3.142;2022-12-18T10:34:23;23.83;;;17.23;;
18228;SDS011;9239;50.932;3.142;2022-12-18T10:36:50;23.40;;;17.17;;
18228;SDS011;9239;50.932;3.142;2022-12-18T10:39:17;26.53;;;16.97;;
18228;SDS011;9239;50.932;3.142;2022-12-18T10:41:47;23.97;;;17.40;;
18228;SDS011;9239;50.932;3.142;2022-12-18T10:44:17;23.00;;;16.83;;
18228;SDS011;9239;50.932;3.142;2022-12-18T10:46:46;24.67;;;17.97;;
18228;SDS011;9239;50.932;3.142;2022-12-18T10:49:19;26.17;;;18.40;;
18228;SDS011;9239;50.932;3.142;2022-12-18T10:51:49;24.97;;;17.87;;
18228;SDS011;9239;50.932;3.142;2022-12-18T10:54:18;28.03;;;18.03;;
18228;SDS011;9239;50.932;3.142;2022-12-18T10:56:47;23.07;;;18.33;;
18228;SDS011;9239;50.932;3.142;2022-12-18T10:59:15;26.50;;;17.97;;
18228;SDS011;9239;50.932;3.142;2022-12-18T11:01:49;22.93;;;17.50;;
18228;SDS011;9239;50.932;3.142;2022-12-18T11:04:18;25.17;;;17.50;;
18228;SDS011;9239;50.932;3.142;2022-12-18T11:09:35;21.73;;;17.00;;
18228;SDS011;9239;50.932;3.142;2022-12-18T11:12:04;24.97;;;19.13;;
18228;SDS011;9239;50.932;3.142;2022-12-18T11:14:45;23.57;;;17.77;;
18228;SDS011;9239;50.932;3.142;2022-12-18T11:17:19;25.40;;;20.13;;
18228;SDS011;9239;50.932;3.142;2022-12-18T11:19:52;30.30;;;19.60;;
18228;SDS011;9239;50.932;3.142;2022-12-18T11:22:20;26.80;;;19.80;;
18228;SDS011;9239;50.932;3.142;2022-12-18T11:24:52;27.77;;;21.07;;
18228;SDS011;9239;50.932;3.142;2022-12-18T11:27:20;28.87;;;19.03;;
18228;SDS011;9239;50.932;3.142;2022-12-18T11:29:48;27.37;;;21.63;;
18228;SDS011;9239;50.932;3.142;2022-12-18T11:32:34;24.57;;;19.77;;
18228;SDS011;9239;50.932;3.142;2022-12-18T11:35:07;28.27;;;20.37;;
18228;SDS011;9239;50.932;3.142;2022-12-18T11:37:41;26.03;;;20.33;;
18228;SDS011;9239;50.932;3.142;2022-12-18T11:40:14;27.90;;;20.90;;
18228;SDS011;9239;50.932;3.142;2022-12-18T11:42:45;26.53;;;19.83;;
18228;SDS011;9239;50.932;3.142;2022-12-18T11:45:21;28.00;;;20.47;;
18228;SDS011;9239;50.932;3.142;2022-12-18T11:47:56;31.43;;;20.70;;
18228;SDS011;9239;50.932;3.142;2022-12-18T11:50:25;25.07;;;19.50;;
18228;SDS011;9239;50.932;3.142;2022-12-18T11:52:57;29.23;;;21.33;;
18228;SDS011;9239;50.932;3.142;2022-12-18T11:55:27;30.10;;;21.10;;
18228;SDS011;9239;50.932;3.142;2022-12-18T11:58:02;31.13;;;22.00;;
18228;SDS011;9239;50.932;3.142;2022-12-18T12:00:36;26.80;;;20.50;;
18228;SDS011;9239;50.932;3.142;2022-12-18T12:03:20;30.03;;;20.80;;
18228;SDS011;9239;50.932;3.142;2022-12-18T12:06:03;27.93;;;19.90;;
18228;SDS011;9239;50.932;3.142;2022-12-18T12:08:42;32.50;;;22.07;;
18228;SDS011;9239;50.932;3.142;2022-12-18T12:11:19;31.57;;;21.63;;
18228;SDS011;9239;50.932;3.142;2022-12-18T12:13:59;30.77;;;22.37;;
18228;SDS011;9239;50.932;3.142;2022-12-18T12:16:41;30.43;;;22.00;;
18228;SDS011;9239;50.932;3.142;2022-12-18T12:19:18;29.07;;;22.43;;
18228;SDS011;9239;50.932;3.142;2022-12-18T12:21:58;30.17;;;21.27;;
18228;SDS011;9239;50.932;3.142;2022-12-18T12:24:36;28.00;;;19.93;;
18228;SDS011;9239;50.932;3.142;2022-12-18T12:27:16;28.70;;;21.43;;
18228;SDS011;9239;50.932;3.142;2022-12-18T12:29:55;30.83;;;22.23;;
18228;SDS011;9239;50.932;3.142;2022-12-18T12:32:30;31.20;;;20.83;;
18228;SDS011;9239;50.932;3.142;2022-12-18T12:35:14;28.43;;;20.57;;
18228;SDS011;9239;50.932;3.142;2022-12-18T12:37:54;27.23;;;20.53;;
18228;SDS011;9239;50.932;3.142;2022-12-18T12:40:31;29.23;;;21.47;;
18228;SDS011;9239;50.932;3.142;2022-12-18T12:43:01;31.93;;;21.67;;
18228;SDS011;9239;50.932;3.142;2022-12-18T12:45:39;29.77;;;21.87;;
18228;SDS011;9239;50.932;3.142;2022-12-18T12:48:14;31.20;;;22.13;;
18228;SDS011;9239;50.932;3.142;2022-12-18T12:50:46;28.07;;;21.63;;
18228;SDS011;9239;50.932;3.142;2022-12-18T12:53:17;31.43;;;21.83;;
18228;SDS011;9239;50.932;3.142;2022-12-18T12:55:50;32.30;;;22.63;;
18228;SDS011;9239;50.932;3.142;2022-12-18T12:58:19;31.37;;;22.43;;
18228;SDS011;9239;50.932;3.142;2022-12-18T13:00:59;32.70;;;22.07;;
18228;SDS011;9239;50.932;3.142;2022-12-18T13:03:35;30.30;;;22.17;;
18228;SDS011;9239;50.932;3.142;2022-12-18T13:06:13;31.00;;;22.20;;
18228;SDS011;9239;50.932;3.142;2022-12-18T13:08:53;32.73;;;24.13;;
18228;SDS011;9239;50.932;3.142;2022-12-18T13:11:29;31.53;;;22.40;;
18228;SDS011;9239;50.932;3.142;2022-12-18T13:14:20;32.10;;;22.50;;
18228;SDS011;9239;50.932;3.142;2022-12-18T13:16:48;29.77;;;21.83;;
18228;SDS011;9239;50.932;3.142;2022-12-18T13:19:20;28.73;;;21.13;;
18228;SDS011;9239;50.932;3.142;2022-12-18T13:21:53;30.57;;;21.73;;
18228;SDS011;9239;50.932;3.142;2022-12-18T13:24:23;33.30;;;22.10;;
18228;SDS011;9239;50.932;3.142;2022-12-18T13:26:53;29.83;;;22.23;;
18228;SDS011;9239;50.932;3.142;2022-12-18T13:32:21;30.90;;;21.90;;
18228;SDS011;9239;50.932;3.142;2022-12-18T13:34:49;30.80;;;22.30;;
18228;SDS011;9239;50.932;3.142;2022-12-18T13:37:56;28.53;;;20.73;;
18228;SDS011;9239;50.932;3.142;2022-12-18T13:43:28;29.07;;;20.47;;
18228;SDS011;9239;50.932;3.142;2022-12-18T13:45:59;28.27;;;20.47;;
18228;SDS011;9239;50.932;3.142;2022-12-18T13:48:29;29.60;;;21.40;;
18228;SDS011;9239;50.932;3.142;2022-12-18T13:50:59;30.37;;;21.03;;
18228;SDS011;9239;50.932;3.142;2022-12-18T13:53:32;29.73;;;19.83;;
18228;SDS011;9239;50.932;3.142;2022-12-18T13:56:02;31.57;;;20.00;;
18228;SDS011;9239;50.932;3.142;2022-12-18T13:58:30;30.13;;;21.17;;
18228;SDS011;9239;50.932;3.142;2022-12-18T14:00:57;29.30;;;20.60;;
18228;SDS011;9239;50.932;3.142;2022-12-18T14:03:27;30.13;;;20.77;;
18228;SDS011;9239;50.932;3.142;2022-12-18T14:05:56;31.67;;;20.73;;
18228;SDS011;9239;50.932;3.142;2022-12-18T14:08:29;29.40;;;20.97;;
18228;SDS011;9239;50.932;3.142;2022-12-18T14:11:01;29.43;;;20.53;;
18228;SDS011;9239;50.932;3.142;2022-12-18T14:13:30;32.70;;;20.63;;
18228;SDS011;9239;50.932;3.142;2022-12-18T14:15:59;29.87;;;20.93;;
18228;SDS011;9239;50.932;3.142;2022-12-18T14:18:29;28.97;;;20.67;;
18228;SDS011;9239;50.932;3.142;2022-12-18T14:21:02;27.60;;;18.47;;
18228;SDS011;9239;50.932;3.142;2022-12-18T14:23:32;28.90;;;19.10;;
18228;SDS011;9239;50.932;3.142;2022-12-18T14:26:02;31.43;;;20.33;;
18228;SDS011;9239;50.932;3.142;2022-12-18T14:28:45;33.33;;;21.10;;
18228;SDS011;9239;50.932;3.142;2022-12-18T14:31:16;30.13;;;20.77;;
18228;SDS011;9239;50.932;3.142;2022-12-18T14:33:44;35.20;;;21.40;;
18228;SDS011;9239;50.932;3.142;2022-12-18T14:36:13;31.70;;;21.03;;
18228;SDS011;9239;50.932;3.142;2022-12-18T14:38:43;31.50;;;22.83;;
18228;SDS011;9239;50.932;3.142;2022-12-18T14:41:15;27.80;;;19.67;;
18228;SDS011;9239;50.932;3.142;2022-12-18T14:43:44;34.07;;;20.87;;
18228;SDS011;9239;50.932;3.142;2022-12-18T14:46:25;30.47;;;19.53;;
18228;SDS011;9239;50.932;3.142;2022-12-18T14:48:54;30.63;;;20.57;;
18228;SDS011;9239;50.932;3.142;2022-12-18T14:51:22;32.63;;;21.47;;
18228;SDS011;9239;50.932;3.142;2022-12-18T14:53:54;34.20;;;23.10;;
18228;SDS011;9239;50.932;3.142;2022-12-18T14:56:23;31.37;;;21.13;;
18228;SDS011;9239;50.932;3.142;2022-12-18T14:58:53;31.77;;;21.80;;
18228;SDS011;9239;50.932;3.142;2022-12-18T15:01:22;30.90;;;21.03;;